createdAt,value
2023-02-06T00:00:28.358Z,101818.75
2023-02-06T00:02:57.899Z,101811.94
2023-02-06T00:05:27.447Z,101812.72
2023-02-06T00:07:59.788Z,101822.97
2023-02-06T00:10:29.507Z,101820.94
2023-02-06T00:12:59.511Z,101819.81
2023-02-06T00:15:29.296Z,101814.13
2023-02-06T00:17:58.804Z,101817.53
2023-02-06T00:20:28.354Z,101821.25
2023-02-06T00:23:00.478Z,101815.25
2023-02-06T00:25:30.000Z,101816.69
2023-02-06T00:27:59.558Z,101816.91
2023-02-06T00:30:29.299Z,101816.28
2023-02-06T00:32:58.845Z,101816.38
2023-02-06T00:35:28.552Z,101810.13
2023-02-06T00:38:02.524Z,101808.09
2023-02-06T00:40:32.522Z,101809.59
2023-02-06T00:43:02.600Z,101805.44
2023-02-06T00:45:32.251Z,101809.44
2023-02-06T00:48:01.866Z,101813.19
2023-02-06T00:50:32.981Z,101811.69
2023-02-06T00:53:05.397Z,101812.13
2023-02-06T00:55:35.246Z,101808.38
2023-02-06T00:58:06.140Z,101800.75
2023-02-06T01:00:35.734Z,101810.66
2023-02-06T01:03:05.340Z,101820.66
2023-02-06T01:05:35.275Z,101821.81
2023-02-06T01:08:07.638Z,101816.38
2023-02-06T01:10:37.396Z,101820.84
2023-02-06T01:13:06.945Z,101817.72
2023-02-06T01:15:36.787Z,101815.81
2023-02-06T01:18:07.141Z,101824.09
2023-02-06T01:20:37.239Z,101824.59
2023-02-06T01:23:09.663Z,101825.44
2023-02-06T01:25:39.393Z,101820.38
2023-02-06T01:28:08.997Z,101819.19
2023-02-06T01:30:38.642Z,101827.03
2023-02-06T01:33:08.200Z,101822.34
2023-02-06T01:35:37.868Z,101824.94
2023-02-06T01:38:10.056Z,101836.38
2023-02-06T01:40:40.527Z,101836.06
2023-02-06T01:43:20.131Z,101841.72
2023-02-06T01:45:49.793Z,101829.22
2023-02-06T01:48:23.620Z,101828.66
2023-02-06T01:50:57.069Z,101833.47
2023-02-06T01:53:29.967Z,101844.00
2023-02-06T01:56:02.399Z,101861.91
2023-02-06T01:58:36.232Z,101854.78
2023-02-06T02:01:07.228Z,101855.47
2023-02-06T02:03:39.887Z,101855.03
2023-02-06T02:06:13.019Z,101851.34
2023-02-06T02:08:47.818Z,101845.41
2023-02-06T02:11:21.299Z,101847.97
2023-02-06T02:13:53.682Z,101849.38
2023-02-06T02:16:30.108Z,101846.50
2023-02-06T02:19:16.173Z,101842.81
2023-02-06T02:22:14.650Z,101836.56
2023-02-06T02:25:14.213Z,101843.88
2023-02-06T02:28:04.598Z,101835.75
2023-02-06T02:31:08.454Z,101832.22
2023-02-06T02:34:12.208Z,101830.28
2023-02-06T02:36:52.054Z,101818.94
2023-02-06T02:39:30.663Z,101829.63
2023-02-06T02:42:09.578Z,101827.63
2023-02-06T02:44:50.130Z,101834.31
2023-02-06T02:47:23.840Z,101829.47
2023-02-06T02:49:55.753Z,101822.06
2023-02-06T02:52:27.921Z,101812.38
2023-02-06T02:54:57.523Z,101814.97
2023-02-06T02:57:32.406Z,101812.72
2023-02-06T03:00:03.735Z,101815.91
2023-02-06T03:02:38.851Z,101810.47
2023-02-06T03:05:11.500Z,101807.06
2023-02-06T03:07:49.703Z,101806.97
2023-02-06T03:10:28.971Z,101808.19
2023-02-06T03:13:06.694Z,101811.22
2023-02-06T03:15:42.703Z,101820.03
2023-02-06T03:18:16.064Z,101822.22
2023-02-06T03:20:48.724Z,101818.53
2023-02-06T03:23:25.893Z,101811.16
2023-02-06T03:25:59.017Z,101809.59
2023-02-06T03:28:34.221Z,101795.00
2023-02-06T03:31:06.471Z,101809.25
2023-02-06T03:33:42.574Z,101807.31
2023-02-06T03:36:17.166Z,101813.84
2023-02-06T03:38:52.238Z,101815.13
2023-02-06T03:41:26.592Z,101812.84
2023-02-06T03:43:57.392Z,101809.59
2023-02-06T03:46:30.279Z,101809.59
2023-02-06T03:49:07.329Z,101818.09
2023-02-06T03:51:42.944Z,101822.91
2023-02-06T03:54:20.038Z,101820.03
2023-02-06T03:56:53.683Z,101817.25
2023-02-06T03:59:24.047Z,101808.75
2023-02-06T04:01:57.771Z,101797.94
2023-02-06T04:04:31.502Z,101799.53
2023-02-06T04:07:04.432Z,101803.06
2023-02-06T04:09:36.567Z,101809.50
2023-02-06T04:12:06.350Z,101811.72
2023-02-06T04:14:37.141Z,101810.38
2023-02-06T04:17:06.911Z,101820.00
2023-02-06T04:19:37.210Z,101815.28
2023-02-06T04:22:08.059Z,101808.63
2023-02-06T04:24:41.562Z,101810.88
2023-02-06T04:27:11.623Z,101821.16
2023-02-06T04:29:41.151Z,101805.50
2023-02-06T04:32:10.878Z,101811.25
2023-02-06T04:34:41.579Z,101806.72
2023-02-06T04:37:12.673Z,101802.41
2023-02-06T04:39:44.850Z,101803.22
2023-02-06T04:42:14.390Z,101802.50
2023-02-06T04:44:45.400Z,101799.41
2023-02-06T04:47:15.182Z,101783.66
2023-02-06T04:49:44.713Z,101775.69
2023-02-06T04:52:14.294Z,101791.53
2023-02-06T04:54:46.499Z,101796.88
2023-02-06T04:57:16.063Z,101795.56
2023-02-06T04:59:45.620Z,101792.19
2023-02-06T05:02:15.294Z,101796.00
2023-02-06T05:04:44.879Z,101812.78
2023-02-06T05:07:14.444Z,101830.75
2023-02-06T05:09:46.594Z,101832.28
2023-02-06T05:12:16.178Z,101828.22
2023-02-06T05:14:45.707Z,101827.16
2023-02-06T05:17:15.262Z,101838.59
2023-02-06T05:19:45.094Z,101835.75
2023-02-06T05:22:14.637Z,101836.34
2023-02-06T05:24:46.830Z,101838.50
2023-02-06T05:27:16.574Z,101829.28
2023-02-06T05:29:46.172Z,101839.19
2023-02-06T05:32:15.723Z,101834.66
2023-02-06T05:34:45.294Z,101834.09
2023-02-06T05:37:15.117Z,101829.13
2023-02-06T05:39:47.528Z,101838.91
2023-02-06T05:42:17.043Z,101834.63
2023-02-06T05:44:46.599Z,101835.06
2023-02-06T05:47:16.587Z,101838.50
2023-02-06T05:49:48.322Z,101837.78
2023-02-06T05:52:17.987Z,101836.50
2023-02-06T05:54:50.185Z,101840.50
2023-02-06T05:57:20.191Z,101843.34
2023-02-06T05:59:49.761Z,101839.78
2023-02-06T06:02:19.752Z,101840.06
2023-02-06T06:04:49.343Z,101835.25
2023-02-06T06:07:18.983Z,101833.78
2023-02-06T06:09:51.160Z,101833.78
2023-02-06T06:12:20.691Z,101832.94
2023-02-06T06:14:50.298Z,101842.88
2023-02-06T06:17:22.492Z,101854.25
2023-02-06T06:19:52.069Z,101850.97
2023-02-06T06:22:21.649Z,101857.34
2023-02-06T06:24:53.764Z,101855.09
2023-02-06T06:27:23.334Z,101860.50
2023-02-06T06:29:52.919Z,101854.69
2023-02-06T06:32:22.616Z,101861.03
2023-02-06T06:34:52.132Z,101869.56
2023-02-06T06:37:21.633Z,101869.28
2023-02-06T06:39:53.803Z,101859.91
2023-02-06T06:42:23.366Z,101856.53
2023-02-06T06:44:53.054Z,101858.78
2023-02-06T06:47:22.589Z,101867.88
2023-02-06T06:49:52.403Z,101866.75
2023-02-06T06:52:25.236Z,101864.63
2023-02-06T06:54:57.856Z,101866.75
2023-02-06T06:57:27.490Z,101848.53
2023-02-06T06:59:57.016Z,101844.84
2023-02-06T07:02:28.562Z,101852.81
2023-02-06T07:05:00.487Z,101855.78
2023-02-06T07:07:30.410Z,101865.88
2023-02-06T07:10:02.932Z,101861.88
2023-02-06T07:12:32.450Z,101873.84
2023-02-06T07:15:02.145Z,101865.16
2023-02-06T07:17:31.723Z,101871.56
2023-02-06T07:20:01.492Z,101865.25
2023-02-06T07:22:31.180Z,101862.13
2023-02-06T07:25:03.333Z,101856.75
2023-02-06T07:27:33.025Z,101851.66
2023-02-06T07:30:04.017Z,101864.47
2023-02-06T07:32:37.442Z,101864.44
2023-02-06T07:35:08.251Z,101863.13
2023-02-06T07:37:37.805Z,101867.53
2023-02-06T07:40:10.740Z,101867.25
2023-02-06T07:42:40.481Z,101857.59
2023-02-06T07:45:18.240Z,101855.91
2023-02-06T07:47:48.078Z,101868.09
2023-02-06T07:50:17.666Z,101868.00
2023-02-06T07:52:47.250Z,101877.75
2023-02-06T07:55:19.757Z,101872.06
2023-02-06T07:57:49.342Z,101867.78
2023-02-06T08:00:20.019Z,101874.84
2023-02-06T08:02:49.679Z,101866.00
2023-02-06T08:05:19.316Z,101874.94
2023-02-06T08:07:48.868Z,101878.34
2023-02-06T08:10:21.215Z,101881.34
2023-02-06T08:12:50.953Z,101887.44
2023-02-06T08:15:20.830Z,101884.63
2023-02-06T08:17:50.494Z,101879.38
2023-02-06T08:20:20.347Z,101882.03
2023-02-06T08:22:49.864Z,101880.66
2023-02-06T08:25:22.047Z,101865.84
2023-02-06T08:27:55.680Z,101869.00
2023-02-06T08:30:25.634Z,101862.50
2023-02-06T08:32:55.277Z,101862.75
2023-02-06T08:35:24.882Z,101871.97
2023-02-06T08:37:54.753Z,101852.53
2023-02-06T08:40:27.256Z,101851.97
2023-02-06T08:42:56.900Z,101851.41
2023-02-06T08:45:26.435Z,101847.97
2023-02-06T08:47:55.959Z,101843.19
2023-02-06T08:50:25.536Z,101846.84
2023-02-06T08:52:55.054Z,101845.97
2023-02-06T08:55:27.191Z,101843.13
2023-02-06T08:57:56.719Z,101836.59
2023-02-06T09:00:26.473Z,101848.78
2023-02-06T09:02:56.970Z,101848.69
2023-02-06T09:05:27.005Z,101842.81
2023-02-06T09:07:56.680Z,101840.25
2023-02-06T09:10:28.778Z,101839.91
2023-02-06T09:12:58.436Z,101843.06
2023-02-06T09:15:28.009Z,101845.00
2023-02-06T09:17:57.695Z,101837.47
2023-02-06T09:20:27.953Z,101829.13
2023-02-06T09:22:57.551Z,101831.63
2023-02-06T09:25:30.113Z,101826.22
2023-02-06T09:27:59.684Z,101828.69
2023-02-06T09:30:29.310Z,101817.16
2023-02-06T09:32:58.855Z,101815.56
2023-02-06T09:35:28.354Z,101813.50
2023-02-06T09:37:57.989Z,101834.72
2023-02-06T09:40:33.262Z,101832.72
2023-02-06T09:43:04.363Z,101836.91
2023-02-06T09:45:35.877Z,101843.19
2023-02-06T09:48:19.285Z,101829.22
2023-02-06T09:50:57.942Z,101832.84
2023-02-06T09:53:33.639Z,101818.34
2023-02-06T09:56:12.649Z,101829.09
2023-02-06T09:58:47.248Z,101825.38
2023-02-06T10:01:23.276Z,101812.56
2023-02-06T10:04:14.641Z,101806.69
2023-02-06T10:06:51.869Z,101797.34
2023-02-06T10:09:24.807Z,101804.38
2023-02-06T10:12:00.702Z,101811.78
2023-02-06T10:14:41.193Z,101806.50
2023-02-06T10:17:20.453Z,101815.41
2023-02-06T10:19:54.878Z,101819.56
2023-02-06T10:22:30.782Z,101822.75
2023-02-06T10:25:21.523Z,101816.69
2023-02-06T10:27:57.308Z,101811.66
2023-02-06T10:30:38.807Z,101805.50
2023-02-06T10:33:25.318Z,101802.56
2023-02-06T10:36:04.315Z,101811.91
2023-02-06T10:38:59.007Z,101818.19
2023-02-06T10:41:39.646Z,101825.19
2023-02-06T10:44:22.527Z,101819.63
2023-02-06T10:46:56.816Z,101826.66
2023-02-06T10:49:31.779Z,101815.41
2023-02-06T10:52:03.453Z,101819.50
2023-02-06T10:54:37.419Z,101823.81
2023-02-06T10:57:16.722Z,101828.50
2023-02-06T10:59:53.655Z,101811.78
2023-02-06T11:02:27.132Z,101805.53
2023-02-06T11:05:03.010Z,101796.47
2023-02-06T11:07:35.400Z,101796.66
2023-02-06T11:10:05.176Z,101795.09
2023-02-06T11:12:38.755Z,101796.19
2023-02-06T11:15:24.882Z,101798.66
2023-02-06T11:17:54.721Z,101795.50
2023-02-06T11:20:28.283Z,101802.41
2023-02-06T11:22:58.073Z,101801.75
2023-02-06T11:25:31.314Z,101800.31
2023-02-06T11:28:02.366Z,101792.00
2023-02-06T11:30:42.588Z,101794.59
2023-02-06T11:33:23.196Z,101794.44
2023-02-06T11:35:59.133Z,101790.47
2023-02-06T11:38:30.976Z,101779.28
2023-02-06T11:41:03.323Z,101790.00
2023-02-06T11:43:35.117Z,101794.81
2023-02-06T11:46:16.903Z,101788.56
2023-02-06T11:48:49.944Z,101783.19
2023-02-06T11:51:19.483Z,101781.19
2023-02-06T11:54:00.520Z,101783.69
2023-02-06T11:56:31.851Z,101774.84
2023-02-06T11:59:08.163Z,101779.50
2023-02-06T12:01:46.960Z,101782.41
2023-02-06T12:04:24.779Z,101789.50
2023-02-06T12:07:01.326Z,101795.00
2023-02-06T12:09:31.378Z,101789.06
2023-02-06T12:12:06.110Z,101792.03
2023-02-06T12:14:41.026Z,101794.72
2023-02-06T12:17:26.772Z,101790.09
2023-02-06T12:20:04.064Z,101785.13
2023-02-06T12:22:39.408Z,101797.59
2023-02-06T12:25:24.511Z,101796.09
2023-02-06T12:27:55.929Z,101804.06
2023-02-06T12:30:34.579Z,101801.16
2023-02-06T12:33:14.841Z,101812.78
2023-02-06T12:35:48.256Z,101825.44
2023-02-06T12:38:25.692Z,101822.72
2023-02-06T12:41:08.196Z,101823.31
2023-02-06T12:43:40.698Z,101821.31
2023-02-06T12:46:15.337Z,101831.78
2023-02-06T12:48:52.448Z,101831.84
2023-02-06T12:51:28.101Z,101836.91
2023-02-06T12:54:01.521Z,101833.72
2023-02-06T12:56:36.822Z,101826.69
2023-02-06T12:59:22.821Z,101828.28
2023-02-06T13:02:00.576Z,101819.00
2023-02-06T13:04:36.446Z,101824.72
2023-02-06T13:07:09.901Z,101818.78
2023-02-06T13:09:43.459Z,101815.78
2023-02-06T13:12:16.708Z,101816.81
2023-02-06T13:14:50.458Z,101812.41
2023-02-06T13:17:24.091Z,101808.84
2023-02-06T13:20:04.548Z,101816.91
2023-02-06T13:22:45.964Z,101810.09
2023-02-06T13:25:45.459Z,101802.25
2023-02-06T13:28:48.124Z,101804.88
2023-02-06T13:31:27.654Z,101802.06
2023-02-06T13:34:00.440Z,101800.81
2023-02-06T13:36:52.005Z,101796.72
2023-02-06T13:39:32.418Z,101812.59
2023-02-06T13:42:26.131Z,101814.78
2023-02-06T13:44:59.184Z,101819.34
2023-02-06T13:47:54.170Z,101814.97
2023-02-06T13:50:48.307Z,101817.78
2023-02-06T13:53:30.520Z,101819.13
2023-02-06T13:56:12.164Z,101814.69
2023-02-06T13:58:47.703Z,101810.66
2023-02-06T14:01:23.516Z,101803.16
2023-02-06T14:03:53.844Z,101802.66
2023-02-06T14:06:38.288Z,101804.63
2023-02-06T14:09:34.474Z,101792.47
2023-02-06T14:12:27.000Z,101791.59
2023-02-06T14:15:10.064Z,101787.13
2023-02-06T14:17:57.879Z,101786.88
2023-02-06T14:20:36.268Z,101792.38
2023-02-06T14:23:17.356Z,101788.03
2023-02-06T14:26:01.856Z,101784.50
2023-02-06T14:28:40.926Z,101789.75
2023-02-06T14:31:21.723Z,101784.50
2023-02-06T14:34:07.298Z,101793.47
2023-02-06T14:36:52.202Z,101791.91
2023-02-06T14:39:38.963Z,101803.50
2023-02-06T14:42:10.680Z,101804.50
2023-02-06T14:44:40.409Z,101807.31
2023-02-06T14:47:19.365Z,101808.91
2023-02-06T14:49:52.613Z,101812.91
2023-02-06T14:52:25.217Z,101814.56
2023-02-06T14:54:55.463Z,101806.66
2023-02-06T14:57:27.476Z,101820.63
2023-02-06T14:59:59.790Z,101810.91
2023-02-06T15:02:32.296Z,101817.16
2023-02-06T15:05:07.498Z,101821.50
2023-02-06T15:07:39.162Z,101825.16
2023-02-06T15:10:11.550Z,101825.69
2023-02-06T15:12:41.282Z,101834.66
2023-02-06T15:15:20.350Z,101841.88
2023-02-06T15:17:59.519Z,101849.03
2023-02-06T15:20:36.373Z,101852.81
2023-02-06T15:23:17.851Z,101854.41
2023-02-06T15:26:01.835Z,101847.88
2023-02-06T15:28:33.858Z,101861.44
2023-02-06T15:31:04.364Z,101849.78
2023-02-06T15:33:36.336Z,101853.00
2023-02-06T15:36:09.259Z,101850.75
2023-02-06T15:38:39.939Z,101854.63
2023-02-06T15:41:11.161Z,101856.84
2023-02-06T15:43:41.050Z,101855.78
2023-02-06T15:46:10.890Z,101863.91
2023-02-06T15:48:43.758Z,101857.66
2023-02-06T15:51:25.680Z,101859.22
2023-02-06T15:54:10.664Z,101867.28
2023-02-06T15:56:44.432Z,101872.91
2023-02-06T15:59:20.494Z,101873.53
2023-02-06T16:01:51.401Z,101889.72
2023-02-06T16:04:25.829Z,101877.47
2023-02-06T16:07:09.547Z,101878.31
2023-02-06T16:09:43.921Z,101881.78
2023-02-06T16:12:13.857Z,101882.09
2023-02-06T16:14:53.441Z,101882.88
2023-02-06T16:17:29.341Z,101877.81
2023-02-06T16:20:02.374Z,101878.06
2023-02-06T16:22:37.897Z,101870.44
2023-02-06T16:25:25.849Z,101879.19
2023-02-06T16:27:56.002Z,101882.34
2023-02-06T16:30:29.561Z,101876.41
2023-02-06T16:33:00.806Z,101878.38
2023-02-06T16:35:30.391Z,101882.34
2023-02-06T16:38:02.711Z,101877.09
2023-02-06T16:40:32.338Z,101870.28
2023-02-06T16:43:03.179Z,101875.81
2023-02-06T16:45:32.811Z,101880.34
2023-02-06T16:48:02.421Z,101880.94
2023-02-06T16:50:31.958Z,101877.38
2023-02-06T16:53:05.396Z,101883.50
2023-02-06T16:55:36.195Z,101884.91
2023-02-06T16:58:06.126Z,101881.94
2023-02-06T17:00:36.386Z,101880.50
2023-02-06T17:03:06.543Z,101885.31
2023-02-06T17:05:38.558Z,101890.75
2023-02-06T17:08:16.407Z,101885.47
2023-02-06T17:10:46.820Z,101895.13
2023-02-06T17:13:17.850Z,101882.34
2023-02-06T17:15:48.109Z,101882.25
2023-02-06T17:18:20.106Z,101893.56
2023-02-06T17:20:52.816Z,101892.56
2023-02-06T17:23:25.547Z,101894.44
2023-02-06T17:25:55.145Z,101897.91
2023-02-06T17:28:24.671Z,101895.63
2023-02-06T17:30:54.260Z,101902.91
2023-02-06T17:33:23.884Z,101894.84
2023-02-06T17:35:53.464Z,101898.28
2023-02-06T17:38:25.639Z,101891.28
2023-02-06T17:40:56.142Z,101902.03
2023-02-06T17:43:25.692Z,101887.84
2023-02-06T17:45:55.258Z,101896.03
2023-02-06T17:48:24.813Z,101892.72
2023-02-06T17:50:54.326Z,101892.13
2023-02-06T17:53:26.506Z,101893.59
2023-02-06T17:55:56.305Z,101895.84
2023-02-06T17:58:26.400Z,101880.75
2023-02-06T18:00:56.221Z,101887.38
2023-02-06T18:03:28.417Z,101890.03
2023-02-06T18:06:01.215Z,101885.63
2023-02-06T18:08:33.424Z,101896.53
2023-02-06T18:11:03.273Z,101888.28
2023-02-06T18:13:32.780Z,101888.84
2023-02-06T18:16:02.463Z,101893.97
2023-02-06T18:18:32.303Z,101897.50
2023-02-06T18:21:02.425Z,101894.53
2023-02-06T18:23:34.656Z,101891.56
2023-02-06T18:26:05.243Z,101903.06
2023-02-06T18:28:36.388Z,101912.69
2023-02-06T18:31:06.630Z,101920.91
2023-02-06T18:33:37.469Z,101919.19
2023-02-06T18:36:08.165Z,101919.22
2023-02-06T18:38:43.012Z,101925.88
2023-02-06T18:41:32.988Z,101930.72
2023-02-06T18:44:01.259Z,101933.38
2023-02-06T18:46:30.998Z,101927.06
2023-02-06T18:49:00.832Z,101932.41
2023-02-06T18:51:31.706Z,101941.09
2023-02-06T18:54:04.422Z,101944.53
2023-02-06T18:56:34.045Z,101948.13
2023-02-06T18:59:04.018Z,101957.16
2023-02-06T19:01:34.436Z,101953.31
2023-02-06T19:04:04.109Z,101953.81
2023-02-06T19:06:36.616Z,101945.81
2023-02-06T19:09:09.560Z,101952.25
2023-02-06T19:11:39.885Z,101945.63
2023-02-06T19:14:11.037Z,101956.25
2023-02-06T19:16:44.492Z,101963.94
2023-02-06T19:19:15.135Z,101963.06
2023-02-06T19:21:45.359Z,101958.75
2023-02-06T19:24:20.666Z,101961.69
2023-02-06T19:26:50.251Z,101970.22
2023-02-06T19:29:34.816Z,101976.63
2023-02-06T19:32:05.047Z,101965.53
2023-02-06T19:34:36.333Z,101968.94
2023-02-06T19:37:06.385Z,101969.44
2023-02-06T19:39:40.396Z,101963.84
2023-02-06T19:42:15.504Z,101957.59
2023-02-06T19:44:45.803Z,101960.84
2023-02-06T19:47:15.531Z,101957.88
2023-02-06T19:49:45.281Z,101953.13
2023-02-06T19:52:14.964Z,101959.59
2023-02-06T19:54:47.893Z,101957.44
2023-02-06T19:57:19.436Z,101949.41
2023-02-06T19:59:48.987Z,101945.88
2023-02-06T20:02:18.751Z,101962.53
2023-02-06T20:04:48.830Z,101960.50
2023-02-06T20:07:18.495Z,101959.72
2023-02-06T20:09:51.224Z,101955.38
2023-02-06T20:12:20.840Z,101948.59
2023-02-06T20:14:50.423Z,101964.06
2023-02-06T20:17:20.041Z,101960.13
2023-02-06T20:19:49.866Z,101958.56
2023-02-06T20:22:19.462Z,101964.28
2023-02-06T20:24:51.591Z,101956.69
2023-02-06T20:27:21.143Z,101965.53
2023-02-06T20:29:51.425Z,101960.41
2023-02-06T20:32:21.159Z,101963.13
2023-02-06T20:34:50.698Z,101965.59
2023-02-06T20:37:21.513Z,101978.72
2023-02-06T20:39:53.771Z,101981.44
2023-02-06T20:42:26.214Z,101979.97
2023-02-06T20:44:55.846Z,101988.56
2023-02-06T20:47:25.408Z,101976.72
2023-02-06T20:49:54.941Z,101979.09
2023-02-06T20:52:24.510Z,101995.47
2023-02-06T20:54:56.630Z,101999.56
2023-02-06T20:57:26.260Z,101989.19
2023-02-06T20:59:56.184Z,101991.25
2023-02-06T21:02:25.822Z,101975.81
2023-02-06T21:04:55.446Z,101969.19
2023-02-06T21:07:25.685Z,101963.91
2023-02-06T21:09:57.912Z,101969.16
2023-02-06T21:12:27.460Z,101973.56
2023-02-06T21:14:56.973Z,101976.22
2023-02-06T21:17:26.496Z,101973.38
2023-02-06T21:19:56.051Z,101976.81
2023-02-06T21:22:25.578Z,101978.75
2023-02-06T21:24:57.675Z,101972.59
2023-02-06T21:27:27.281Z,101958.59
2023-02-06T21:29:57.036Z,101964.19
2023-02-06T21:32:27.182Z,101957.16
2023-02-06T21:34:56.725Z,101966.81
2023-02-06T21:37:26.784Z,101973.56
2023-02-06T21:39:58.899Z,101991.63
2023-02-06T21:42:28.609Z,101993.44
2023-02-06T21:44:58.195Z,101989.81
2023-02-06T21:47:27.755Z,101979.31
2023-02-06T21:49:57.348Z,101986.22
2023-02-06T21:52:26.890Z,101986.53
2023-02-06T21:54:58.993Z,101990.22
2023-02-06T21:57:28.668Z,102000.00
2023-02-06T21:59:58.218Z,102001.22
2023-02-06T22:02:27.760Z,102003.72
2023-02-06T22:04:59.681Z,102000.41
2023-02-06T22:07:29.272Z,102007.47
2023-02-06T22:10:01.384Z,102002.25
2023-02-06T22:12:30.905Z,102008.16
2023-02-06T22:15:00.655Z,101998.47
2023-02-06T22:17:32.050Z,102002.72
2023-02-06T22:20:01.598Z,101997.28
2023-02-06T22:22:31.161Z,102008.38
2023-02-06T22:25:03.652Z,102002.31
2023-02-06T22:27:35.010Z,101996.09
2023-02-06T22:30:05.030Z,102011.97
2023-02-06T22:32:34.718Z,102006.13
2023-02-06T22:35:04.234Z,102010.63
2023-02-06T22:37:34.860Z,102022.00
2023-02-06T22:40:08.006Z,102017.69
2023-02-06T22:42:37.813Z,102014.75
2023-02-06T22:45:08.818Z,102018.06
2023-02-06T22:47:38.462Z,102021.94
2023-02-06T22:50:09.355Z,102026.91
2023-02-06T22:52:51.489Z,102018.00
2023-02-06T22:55:24.780Z,102030.47
2023-02-06T22:57:54.312Z,102022.19
2023-02-06T23:00:23.893Z,102005.16
2023-02-06T23:02:53.581Z,102013.91
2023-02-06T23:05:23.152Z,102020.50
2023-02-06T23:07:52.696Z,102029.34
2023-02-06T23:10:24.897Z,102021.03
2023-02-06T23:12:54.514Z,102023.47
2023-02-06T23:15:24.128Z,102011.78
2023-02-06T23:17:53.808Z,102012.72
2023-02-06T23:20:23.474Z,102013.22
2023-02-06T23:22:52.999Z,102020.78
2023-02-06T23:25:25.157Z,102027.38
2023-02-06T23:27:54.849Z,102039.53
2023-02-06T23:30:24.620Z,102042.66
2023-02-06T23:32:54.227Z,102057.28
2023-02-06T23:35:23.755Z,102051.91
2023-02-06T23:37:53.307Z,102058.88
2023-02-06T23:40:25.522Z,102064.25
2023-02-06T23:42:55.330Z,102062.56
2023-02-06T23:45:24.901Z,102061.94
2023-02-06T23:47:54.906Z,102049.69
2023-02-06T23:50:25.061Z,102048.03
2023-02-06T23:52:54.986Z,102038.38
2023-02-06T23:55:28.466Z,102037.41
2023-02-06T23:57:58.023Z,102041.81
